KALN/ALN METAR and TAF weather

Enter ICAO airport designator
Station Type Date Time Source
KALN METAR 2022/06/28 23:50 UTC NOAA

KALN 282350Z 12006KT 10SM CLR 26/11 A3017


Station Type Date Time Source
KALN Decoded METAR 2022/06/28 23:50 UTC NOAA

Alton/St. Louis, St. Louis Regional Airport, IL, United States (KALN) 38-54N 090-03W
Jun 28, 2022 - 07:50 PM EDT / 2022.06.28 2350 UTC
Wind: from the ESE (120 degrees) at 7 MPH (6 KT):0
Visibility: 10 mile(s):0
Sky conditions: clear
Temperature: 78 F (26 C)
Dew Point: 51 F (11 C)
Relative Humidity: 39%
Pressure (altimeter): 30.17 in. Hg (1021 hPa)
ob: KALN 282350Z 12006KT 10SM CLR 26/11 A3017
cycle: 0

Station Type Date Time Source
KALN TAF UTC NOAA

Error!

Example: see airport list